Terminal Aerodrome Forecast
Issued by NWS Cleveland, OH

Home | Current Version | Previous Version | Graphics & Text | Print | Product List | Glossary Off
Versions: 1 2 3 4 5 6 7 8 9 10 11 12 13 14 15 16 17 18 19 20 21 22 23

636
FTUS41 KCLE 241120
TAFCLE
TAF
KCLE 241120Z 2412/2518 14003KT P6SM SKC
     FM241600 03008KT P6SM SKC
     FM250100 15003KT P6SM SKC
     FM251600 03007KT P6SM SCT250=

USA.gov is the U.S. government's official web portal to all federal, state and local government web resources and services.